Time;durP1;ratioP1;P1;durP2;ratioP2;P2;SDS_P1;SDS_P2;PMS_P1;PMS_P2;Temp;Humidity;BMP_temperature;BMP_pressure;BME280_temperature;BME280_humidity;BME280_pressure;Samples;Min_cycle;Max_cycle;Signal;HPM_P1;HPM_P2
2023/01/20 00:02:04;;;;;;;0.00;0.00;;;;;;;-2.60;100.00;98040.31;4900471;28;20240;-60
2023/01/20 00:04:31;;;;;;;0.00;0.00;;;;;;;-2.64;100.00;98049.88;4896067;28;20286;-60
2023/01/20 00:06:57;;;;;;;0.00;0.00;;;;;;;-2.64;100.00;98054.16;4898941;28;20243;-61
2023/01/20 00:09:24;;;;;;;0.00;0.00;;;;;;;-2.62;100.00;98058.28;4897907;29;20219;-60
2023/01/20 00:11:54;;;;;;;0.00;0.00;;;;;;;-2.58;100.00;98067.44;4894394;29;20252;-60
2023/01/20 00:14:20;;;;;;;0.00;0.00;;;;;;;-2.59;100.00;98065.78;4897637;28;20813;-61
2023/01/20 00:16:48;;;;;;;0.00;0.00;;;;;;;-2.61;100.00;98069.31;4896683;28;20240;-60
2023/01/20 00:19:15;;;;;;;0.00;0.00;;;;;;;-2.59;100.00;98070.91;4896641;29;20236;-61
2023/01/20 00:21:42;;;;;;;0.00;0.00;;;;;;;-2.61;100.00;98065.03;4892816;28;20240;-59
2023/01/20 00:24:09;;;;;;;0.00;0.00;;;;;;;-2.59;100.00;98073.44;4897170;29;20223;-60
2023/01/20 00:26:36;;;;;;;0.00;0.00;;;;;;;-2.62;100.00;98075.34;4888348;28;20235;-61
2023/01/20 00:29:02;;;;;;;0.00;0.00;;;;;;;-2.65;100.00;98071.22;4898545;29;20297;-61
2023/01/20 00:31:31;;;;;;;0.00;0.00;;;;;;;-2.63;100.00;98071.97;4897298;29;20327;-61
2023/01/20 00:34:00;;;;;;;0.00;0.00;;;;;;;-2.64;100.00;98082.25;4899875;28;20238;-60
2023/01/20 00:36:30;;;;;;;0.00;0.00;;;;;;;-2.67;100.00;98084.09;4899930;28;20242;-61
2023/01/20 00:38:57;;;;;;;0.00;0.00;;;;;;;-2.71;100.00;98077.50;4897139;29;20238;-60
2023/01/20 00:41:24;;;;;;;0.00;0.00;;;;;;;-2.72;100.00;98075.00;4901185;29;20234;-61
2023/01/20 00:43:50;;;;;;;0.00;0.00;;;;;;;-2.82;100.00;98074.69;4896087;28;20247;-61
2023/01/20 00:46:17;;;;;;;0.00;0.00;;;;;;;-2.87;100.00;98081.75;4902747;28;20774;-61
2023/01/20 00:48:44;;;;;;;0.00;0.00;;;;;;;-2.84;100.00;98087.50;4899320;28;20611;-61
2023/01/20 00:51:15;;;;;;;0.00;0.00;;;;;;;-2.91;100.00;98087.94;4899354;28;20232;-61
2023/01/20 00:53:42;;;;;;;0.00;0.00;;;;;;;-3.00;100.00;98087.50;4897561;28;20243;-61
2023/01/20 00:56:08;;;;;;;0.00;0.00;;;;;;;-3.04;100.00;98090.25;4901178;28;20397;-61
2023/01/20 00:58:35;;;;;;;0.00;0.00;;;;;;;-3.14;100.00;98093.28;4895231;29;20233;-62
2023/01/20 01:01:02;;;;;;;0.00;0.00;;;;;;;-3.19;100.00;98095.28;4901929;28;20331;-61
2023/01/20 01:03:29;;;;;;;0.00;0.00;;;;;;;-3.21;100.00;98091.97;4897597;28;20290;-59
2023/01/20 01:06:06;;;;;;;0.00;0.00;;;;;;;-3.17;100.00;98102.84;4901814;28;20281;-61
2023/01/20 01:08:34;;;;;;;0.00;0.00;;;;;;;-3.13;100.00;98106.88;4896689;28;20250;-61
2023/01/20 01:11:01;;;;;;;0.00;0.00;;;;;;;-3.10;100.00;98101.63;4896100;29;20330;-60
2023/01/20 01:13:28;;;;;;;0.00;0.00;;;;;;;-3.01;100.00;98106.28;4898055;28;20308;-60
2023/01/20 01:15:54;;;;;;;0.00;0.00;;;;;;;-2.95;100.00;98104.31;4896423;28;20237;-61
2023/01/20 01:18:21;;;;;;;0.00;0.00;;;;;;;-2.93;100.00;98117.81;4902216;28;20239;-61
2023/01/20 01:20:47;;;;;;;0.00;0.00;;;;;;;-2.86;100.00;98119.97;4898988;28;20652;-61
2023/01/20 01:23:14;;;;;;;0.00;0.00;;;;;;;-2.80;100.00;98112.91;4902062;28;20235;-61
2023/01/20 01:25:42;;;;;;;0.00;0.00;;;;;;;-2.72;100.00;98116.72;4898120;29;20235;-61
2023/01/20 01:28:08;;;;;;;0.00;0.00;;;;;;;-2.68;100.00;98118.22;4897533;29;20670;-61
2023/01/20 01:30:35;;;;;;;0.00;0.00;;;;;;;-2.64;100.00;98123.13;4896793;28;20240;-62
2023/01/20 01:33:01;;;;;;;0.00;0.00;;;;;;;-2.58;100.00;98128.78;4902686;28;20728;-61
2023/01/20 01:35:28;;;;;;;0.00;0.00;;;;;;;-2.44;100.00;98130.59;4895072;28;20225;-61
2023/01/20 01:37:54;;;;;;;0.00;0.00;;;;;;;-2.44;100.00;98132.34;4900433;28;20247;-61
2023/01/20 01:40:21;;;;;;;0.00;0.00;;;;;;;-2.41;100.00;98140.66;4899388;28;20228;-61
2023/01/20 01:42:49;;;;;;;0.00;0.00;;;;;;;-2.40;100.00;98144.03;4895691;28;20250;-61
2023/01/20 01:45:23;;;;;;;0.00;0.00;;;;;;;-2.33;100.00;98144.53;4899800;28;20231;-61
2023/01/20 01:47:55;;;;;;;0.00;0.00;;;;;;;-2.35;100.00;98139.50;4897302;28;20257;-60
2023/01/20 01:50:26;;;;;;;0.00;0.00;;;;;;;-2.36;100.00;98145.53;4900203;28;20758;-61
2023/01/20 01:52:55;;;;;;;0.00;0.00;;;;;;;-2.40;100.00;98149.97;4895334;28;20300;-61
2023/01/20 01:55:41;;;;;;;0.00;0.00;;;;;;;-2.49;100.00;98144.53;4858317;29;20249;-61
2023/01/20 01:58:13;;;;;;;0.00;0.00;;;;;;;-2.56;100.00;98149.94;4899188;28;20243;-61
2023/01/20 02:00:41;;;;;;;0.00;0.00;;;;;;;-2.58;100.00;98150.94;4895047;28;20246;-61
2023/01/20 02:03:08;;;;;;;0.00;0.00;;;;;;;-2.66;100.00;98148.78;4898116;29;20230;-61
2023/01/20 02:05:36;;;;;;;0.00;0.00;;;;;;;-2.67;100.00;98147.97;4897444;28;20230;-61
2023/01/20 02:08:04;;;;;;;0.00;0.00;;;;;;;-2.69;100.00;98148.94;4900733;29;20307;-61
2023/01/20 02:10:31;;;;;;;0.00;0.00;;;;;;;-2.73;100.00;98144.88;4897236;29;20250;-61
2023/01/20 02:12:58;;;;;;;0.00;0.00;;;;;;;-2.76;100.00;98153.56;4899915;28;20944;-61
2023/01/20 02:15:32;;;;;;;0.00;0.00;;;;;;;-2.82;100.00;98152.13;4900348;28;20227;-60
2023/01/20 02:18:15;;;;;;;0.00;0.00;;;;;;;-2.83;100.00;98154.75;4897630;28;20235;-60
2023/01/20 02:21:07;;;;;;;0.00;0.00;;;;;;;-2.92;100.00;98161.16;4894502;28;20234;-61
2023/01/20 02:23:58;;;;;;;0.00;0.00;;;;;;;-3.04;100.00;98162.59;4892269;28;20246;-61
2023/01/20 02:26:47;;;;;;;0.00;0.00;;;;;;;-3.05;100.00;98171.16;4895559;28;20247;-61
2023/01/20 02:29:37;;;;;;;0.00;0.00;;;;;;;-3.08;100.00;98173.88;4895630;29;20286;-61
2023/01/20 02:32:12;;;;;;;0.00;0.00;;;;;;;-3.14;100.00;98171.63;4903969;28;20682;-61
2023/01/20 02:34:42;;;;;;;0.00;0.00;;;;;;;-3.22;100.00;98174.56;4907301;28;20233;-61
2023/01/20 02:37:16;;;;;;;0.00;0.00;;;;;;;-3.30;100.00;98174.09;4908383;28;20255;-60
2023/01/20 02:39:53;;;;;;;0.00;0.00;;;;;;;-3.29;100.00;98176.56;4907282;28;20233;-61
2023/01/20 02:42:25;;;;;;;0.00;0.00;;;;;;;-3.31;100.00;98173.25;4907301;29;20238;-63
2023/01/20 02:44:57;;;;;;;0.10;0.10;;;;;;;-3.34;100.00;98175.16;4906581;28;20650;-63
2023/01/20 02:47:31;;;;;;;0.00;0.00;;;;;;;-3.47;100.00;98177.44;4913256;28;20234;-61
2023/01/20 02:50:07;;;;;;;0.00;0.00;;;;;;;-3.51;100.00;98188.72;4910155;28;20233;-62
2023/01/20 02:52:38;;;;;;;0.00;0.00;;;;;;;-3.58;100.00;98178.78;4907335;28;20238;-62
2023/01/20 02:55:08;;;;;;;0.00;0.00;;;;;;;-3.63;100.00;98185.03;4905316;28;20221;-62
2023/01/20 02:57:40;;;;;;;0.00;0.00;;;;;;;-3.65;100.00;98191.91;4908535;28;20238;-62
2023/01/20 03:00:14;;;;;;;0.00;0.00;;;;;;;-3.65;100.00;98194.47;4910888;28;20240;-61
2023/01/20 03:02:44;;;;;;;0.00;0.00;;;;;;;-3.65;100.00;98199.56;4908454;28;20234;-61
2023/01/20 03:05:17;;;;;;;0.00;0.00;;;;;;;-3.65;100.00;98202.13;4909581;28;20217;-61
2023/01/20 03:07:45;;;;;;;0.00;0.00;;;;;;;-3.71;100.00;98203.25;4908400;28;20801;-62
2023/01/20 03:10:16;;;;;;;0.00;0.00;;;;;;;-3.72;100.00;98204.97;4909472;28;20241;-62
2023/01/20 03:12:49;;;;;;;0.00;0.00;;;;;;;-3.76;100.00;98210.28;4908171;28;20239;-61
2023/01/20 03:15:20;;;;;;;0.00;0.00;;;;;;;-3.81;100.00;98207.94;4911293;28;20224;-61
2023/01/20 03:17:48;;;;;;;0.10;0.10;;;;;;;-3.81;100.00;98213.03;4906952;28;30814;-61
2023/01/20 03:20:16;;;;;;;0.10;0.10;;;;;;;-3.84;100.00;98213.19;4910975;28;20694;-61
2023/01/20 03:22:43;;;;;;;0.00;0.00;;;;;;;-3.86;100.00;98215.81;4910295;28;20235;-61
2023/01/20 03:25:11;;;;;;;0.00;0.00;;;;;;;-3.86;100.00;98220.91;4907801;28;20222;-61
2023/01/20 03:27:37;;;;;;;0.00;0.00;;;;;;;-3.85;100.00;98208.97;4908830;28;20298;-61
2023/01/20 03:30:06;;;;;;;0.00;0.00;;;;;;;-3.88;100.00;98209.94;4911898;28;20714;-61
2023/01/20 03:32:33;;;;;;;0.00;0.00;;;;;;;-3.86;100.00;98217.53;4908213;28;20244;-61
2023/01/20 03:35:01;;;;;;;0.00;0.00;;;;;;;-3.82;100.00;98218.22;4906655;28;20242;-61
2023/01/20 03:37:28;;;;;;;0.00;0.00;;;;;;;-3.74;100.00;98224.59;4909266;28;20235;-61
2023/01/20 03:39:55;;;;;;;0.00;0.00;;;;;;;-3.63;100.00;98224.09;4908515;28;20251;-61
2023/01/20 03:42:28;;;;;;;0.00;0.00;;;;;;;-3.66;100.00;98228.53;4906598;28;20619;-61
2023/01/20 03:45:05;;;;;;;0.00;0.00;;;;;;;-3.71;100.00;98227.03;4907752;28;20267;-61
2023/01/20 03:47:48;;;;;;;0.00;0.00;;;;;;;-3.70;100.00;98238.03;4903294;28;20288;-61
2023/01/20 03:50:27;;;;;;;0.00;0.00;;;;;;;-3.70;100.00;98240.59;4909210;28;20234;-61
2023/01/20 03:52:59;;;;;;;0.00;0.00;;;;;;;-3.70;100.00;98243.13;4907732;28;20241;-61
2023/01/20 03:55:34;;;;;;;0.00;0.00;;;;;;;-3.71;100.00;98246.63;4910049;28;20244;-61
2023/01/20 03:58:04;;;;;;;0.00;0.00;;;;;;;-3.66;100.00;98241.28;4909457;28;20234;-61
2023/01/20 04:04:13;;;;;;;0.00;0.00;;;;;;;-3.68;100.00;98250.72;5717822;23;20244;-58
2023/01/20 04:06:42;;;;;;;0.10;0.10;;;;;;;-3.69;100.00;98256.72;4926582;28;20559;-60
2023/01/20 04:09:13;;;;;;;0.00;0.00;;;;;;;-3.73;100.00;98264.53;4932360;28;20230;-58
2023/01/20 04:11:40;;;;;;;0.10;0.10;;;;;;;-3.82;100.00;98264.94;4926904;28;20704;-58
2023/01/20 04:14:08;;;;;;;0.00;0.00;;;;;;;-3.81;100.00;98264.03;4930028;28;20241;-59
2023/01/20 04:16:36;;;;;;;0.00;0.00;;;;;;;-3.84;100.00;98260.81;4918387;28;20710;-59
2023/01/20 04:19:03;;;;;;;0.03;0.03;;;;;;;-3.89;100.00;98266.09;4920670;28;20788;-58
2023/01/20 04:21:34;;;;;;;0.00;0.00;;;;;;;-3.91;100.00;98258.53;4920078;28;20277;-58
2023/01/20 04:24:05;;;;;;;0.00;0.00;;;;;;;-3.88;100.00;98275.41;4922848;28;20233;-58
2023/01/20 04:26:31;;;;;;;0.00;0.00;;;;;;;-3.89;100.00;98277.16;4916286;28;20571;-59
2023/01/20 04:28:58;;;;;;;0.00;0.00;;;;;;;-3.79;100.00;98282.66;4920805;28;20242;-60
2023/01/20 04:31:25;;;;;;;0.00;0.00;;;;;;;-3.77;100.00;98278.31;5108300;23;20233;-58
2023/01/20 04:33:51;;;;;;;0.00;0.00;;;;;;;-3.73;100.00;98286.66;4925678;28;20242;-58
2023/01/20 04:36:18;;;;;;;0.00;0.00;;;;;;;-3.67;100.00;98290.66;4929362;28;20626;-59
2023/01/20 04:38:44;;;;;;;0.00;0.00;;;;;;;-3.64;100.00;98301.53;4932979;28;20743;-58
2023/01/20 04:41:12;;;;;;;0.00;0.00;;;;;;;-3.57;100.00;98294.44;4937605;28;20288;-58
2023/01/20 04:43:43;;;;;;;0.00;0.00;;;;;;;-3.44;100.00;98297.25;4934548;28;20736;-59
2023/01/20 04:46:10;;;;;;;0.00;0.00;;;;;;;-3.33;100.00;98305.22;4937064;28;20251;-60
2023/01/20 04:48:37;;;;;;;0.00;0.00;;;;;;;-3.19;100.00;98302.06;4930918;28;20232;-59
2023/01/20 04:51:04;;;;;;;0.00;0.00;;;;;;;-3.11;100.00;98304.22;4931492;28;20237;-59
2023/01/20 04:53:30;;;;;;;0.00;0.00;;;;;;;-2.99;100.00;98300.25;4934556;28;20261;-59
2023/01/20 04:55:57;;;;;;;0.00;0.00;;;;;;;-2.89;100.00;98311.69;4925334;28;20598;-59
2023/01/20 04:58:25;;;;;;;0.00;0.00;;;;;;;-2.80;100.00;98310.44;4929159;28;20244;-57
2023/01/20 05:00:52;;;;;;;0.00;0.00;;;;;;;-2.76;100.00;98316.22;4923866;28;20242;-57
2023/01/20 05:03:19;;;;;;;0.00;0.00;;;;;;;-2.72;100.00;98318.56;4930810;28;20654;-58
2023/01/20 05:05:52;;;;;;;0.00;0.00;;;;;;;-2.74;100.00;98310.13;4924515;28;20240;-60
2023/01/20 05:08:18;;;;;;;0.00;0.00;;;;;;;-2.80;100.00;98318.09;4931002;28;20291;-59
2023/01/20 05:10:45;;;;;;;0.00;0.00;;;;;;;-2.82;100.00;98315.59;4927877;28;20299;-59
2023/01/20 05:13:11;;;;;;;0.00;0.00;;;;;;;-2.85;100.00;98320.03;4945290;28;20238;-59
2023/01/20 05:15:41;;;;;;;0.00;0.00;;;;;;;-2.92;100.00;98322.06;4931015;28;20239;-58
2023/01/20 05:18:07;;;;;;;0.00;0.00;;;;;;;-2.92;100.00;98334.00;4934597;28;20246;-59
2023/01/20 05:20:34;;;;;;;0.00;0.00;;;;;;;-2.85;100.00;98337.94;4929210;28;20710;-57
2023/01/20 05:23:00;;;;;;;0.00;0.00;;;;;;;-2.83;100.00;98333.56;4933632;28;20705;-58
2023/01/20 05:25:27;;;;;;;0.00;0.00;;;;;;;-2.85;100.00;98332.81;4934676;28;20316;-58
2023/01/20 05:27:53;;;;;;;0.00;0.00;;;;;;;-2.84;100.00;98337.84;4932957;28;20242;-59
2023/01/20 05:30:20;;;;;;;0.00;0.00;;;;;;;-2.87;100.00;98345.66;4937012;28;20697;-58
2023/01/20 05:32:50;;;;;;;0.00;0.00;;;;;;;-2.91;100.00;98339.03;4927264;28;20305;-58
2023/01/20 05:35:17;;;;;;;0.00;0.00;;;;;;;-2.92;100.00;98345.03;4926398;28;20277;-58
2023/01/20 05:37:44;;;;;;;0.00;0.00;;;;;;;-2.92;100.00;98351.88;4928315;28;20239;-59
2023/01/20 05:40:11;;;;;;;0.00;0.00;;;;;;;-2.99;100.00;98344.50;4923902;28;20779;-58
2023/01/20 05:42:38;;;;;;;0.00;0.00;;;;;;;-3.01;100.00;98358.25;4929300;28;20739;-58
2023/01/20 05:45:06;;;;;;;0.00;0.00;;;;;;;-3.13;100.00;98359.66;4927847;28;20756;-59
2023/01/20 05:47:32;;;;;;;0.00;0.00;;;;;;;-3.19;100.00;98359.94;4926534;28;20237;-58
2023/01/20 05:50:00;;;;;;;0.00;0.00;;;;;;;-3.29;100.00;98364.66;4933782;28;20704;-59
2023/01/20 05:52:27;;;;;;;0.00;0.00;;;;;;;-3.35;100.00;98362.38;4931541;28;20597;-59
2023/01/20 05:54:53;;;;;;;0.00;0.00;;;;;;;-3.33;100.00;98369.03;4929807;28;20614;-60
2023/01/20 05:57:20;;;;;;;0.00;0.00;;;;;;;-3.37;100.00;98369.25;4927631;28;20260;-59
2023/01/20 05:59:47;;;;;;;0.00;0.00;;;;;;;-3.35;100.00;98370.84;4929530;28;20286;-59
2023/01/20 06:02:17;;;;;;;0.00;0.00;;;;;;;-3.35;100.00;98372.56;4929138;28;20273;-59
2023/01/20 06:04:44;;;;;;;0.00;0.00;;;;;;;-3.29;100.00;98382.50;4929450;28;20233;-59
2023/01/20 06:07:12;;;;;;;0.00;0.00;;;;;;;-3.32;100.00;98393.66;4933288;28;20237;-59
2023/01/20 06:09:38;;;;;;;0.00;0.00;;;;;;;-3.28;100.00;98395.19;4927523;28;20710;-60
2023/01/20 06:12:06;;;;;;;0.00;0.00;;;;;;;-3.22;100.00;98394.09;4933026;28;20238;-59
2023/01/20 06:14:32;;;;;;;0.00;0.00;;;;;;;-3.22;100.00;98395.81;4930276;28;20747;-58
2023/01/20 06:16:59;;;;;;;0.00;0.00;;;;;;;-3.14;100.00;98407.31;4926880;28;20573;-58
2023/01/20 06:19:25;;;;;;;0.00;0.00;;;;;;;-3.09;100.00;98401.19;4932785;28;20881;-58
2023/01/20 06:21:52;;;;;;;0.00;0.00;;;;;;;-3.08;100.00;98406.22;4929304;28;20713;-59
2023/01/20 06:24:20;;;;;;;0.00;0.00;;;;;;;-3.08;100.00;98407.94;4930917;28;20238;-59
2023/01/20 06:26:49;;;;;;;0.00;0.00;;;;;;;-3.10;100.00;98413.13;4925072;28;20284;-59
2023/01/20 06:29:16;;;;;;;0.00;0.00;;;;;;;-3.15;100.00;98410.75;4931017;29;20257;-58
2023/01/20 06:31:43;;;;;;;0.00;0.00;;;;;;;-3.12;100.00;98417.47;4925631;28;20250;-60
2023/01/20 06:34:10;;;;;;;0.00;0.00;;;;;;;-3.07;100.00;98419.81;4926599;28;20243;-59
2023/01/20 06:36:37;;;;;;;0.00;0.00;;;;;;;-3.07;100.00;98418.09;4930441;28;21025;-57
2023/01/20 06:39:04;;;;;;;0.03;0.03;;;;;;;-3.11;100.00;98419.13;4932033;28;20238;-57
2023/01/20 06:41:32;;;;;;;0.00;0.00;;;;;;;-3.10;100.00;98428.44;4928610;28;20690;-58
2023/01/20 06:43:58;;;;;;;0.00;0.00;;;;;;;-3.11;100.00;98426.78;4929110;28;20246;-58
2023/01/20 06:46:25;;;;;;;0.00;0.00;;;;;;;-3.14;100.00;98432.84;4930472;28;20266;-60
2023/01/20 06:48:57;;;;;;;0.00;0.00;;;;;;;-3.18;100.00;98431.34;4932258;28;20237;-58
2023/01/20 06:51:24;;;;;;;0.00;0.00;;;;;;;-3.15;100.00;98438.84;4927911;28;20230;-58
2023/01/20 06:53:50;;;;;;;0.00;0.00;;;;;;;-3.26;100.00;98435.97;4926122;28;20663;-57
2023/01/20 06:56:17;;;;;;;0.00;0.00;;;;;;;-3.33;100.00;98442.25;4929340;28;20616;-58
2023/01/20 06:58:45;;;;;;;0.00;0.00;;;;;;;-3.30;100.00;98442.13;4927848;28;20230;-59
2023/01/20 07:01:13;;;;;;;0.00;0.00;;;;;;;-3.29;100.00;98441.22;4934628;28;20245;-58
2023/01/20 07:03:42;;;;;;;0.00;0.00;;;;;;;-3.37;100.00;98441.53;4925266;28;20236;-58
2023/01/20 07:06:15;;;;;;;0.00;0.00;;;;;;;-3.33;100.00;98442.25;4929581;28;20330;-58
2023/01/20 07:08:43;;;;;;;0.00;0.00;;;;;;;-3.38;100.00;98457.75;4925643;28;20240;-57
2023/01/20 07:11:09;;;;;;;0.00;0.00;;;;;;;-3.47;100.00;98456.44;4931986;28;20322;-56
2023/01/20 07:13:36;;;;;;;0.00;0.00;;;;;;;-3.48;100.00;98459.88;4928836;28;20234;-59
2023/01/20 07:16:04;;;;;;;0.00;0.00;;;;;;;-3.51;100.00;98454.91;4930480;28;20289;-59
2023/01/20 07:18:31;;;;;;;0.00;0.00;;;;;;;-3.52;100.00;98463.47;4928035;28;20287;-59
2023/01/20 07:20:59;;;;;;;0.00;0.00;;;;;;;-3.53;100.00;98458.41;4924307;28;20237;-59
2023/01/20 07:23:27;;;;;;;0.00;0.00;;;;;;;-3.55;100.00;98468.69;4927914;28;20305;-59
2023/01/20 07:25:58;;;;;;;0.07;0.07;;;;;;;-3.57;100.00;98476.41;4925795;28;20249;-59
2023/01/20 07:28:24;;;;;;;0.00;0.00;;;;;;;-3.57;100.00;98473.03;4929985;28;20283;-58
2023/01/20 07:30:51;;;;;;;0.03;0.03;;;;;;;-3.57;100.00;98470.50;4928596;28;20241;-59
2023/01/20 07:33:19;;;;;;;0.00;0.00;;;;;;;-3.58;100.00;98481.59;4930223;28;20233;-60
2023/01/20 07:35:50;;;;;;;0.00;0.00;;;;;;;-3.61;100.00;98476.63;4931962;28;20231;-59
2023/01/20 07:38:16;;;;;;;0.00;0.00;;;;;;;-3.58;100.00;98484.94;4929148;28;20233;-58
2023/01/20 07:40:43;;;;;;;0.00;0.00;;;;;;;-3.59;100.00;98487.59;4932747;28;20237;-59
2023/01/20 07:43:10;;;;;;;0.00;0.00;;;;;;;-3.61;100.00;98487.63;4933616;28;20230;-58
2023/01/20 07:45:36;;;;;;;0.10;0.10;;;;;;;-3.60;100.00;98486.75;4935822;28;20240;-59
2023/01/20 07:48:03;;;;;;;0.00;0.00;;;;;;;-3.66;100.00;98499.75;4930052;28;20724;-57
2023/01/20 07:50:31;;;;;;;0.00;0.00;;;;;;;-3.70;100.00;98498.22;4931048;28;20317;-58
2023/01/20 07:52:58;;;;;;;0.00;0.00;;;;;;;-3.68;100.00;98500.72;4931364;28;20249;-59
2023/01/20 07:55:24;;;;;;;0.00;0.00;;;;;;;-3.68;100.00;98506.66;4936679;28;20318;-58
2023/01/20 07:57:51;;;;;;;0.03;0.03;;;;;;;-3.63;100.00;98519.22;4925036;28;20237;-59
2023/01/20 08:00:18;;;;;;;0.00;0.00;;;;;;;-3.63;100.00;98520.03;4937384;28;20663;-59
2023/01/20 08:02:45;;;;;;;0.00;0.00;;;;;;;-3.63;100.00;98521.78;4933220;28;20304;-59
2023/01/20 08:05:12;;;;;;;0.00;0.00;;;;;;;-3.64;100.00;98525.22;4932093;28;20260;-58
2023/01/20 08:07:40;;;;;;;0.00;0.00;;;;;;;-3.66;100.00;98524.44;4925546;28;20232;-60
2023/01/20 08:10:07;;;;;;;0.00;0.00;;;;;;;-3.67;100.00;98526.16;4932751;28;20246;-59
2023/01/20 08:12:34;;;;;;;0.00;0.00;;;;;;;-3.59;100.00;98534.31;4929977;28;20231;-59
2023/01/20 08:15:00;;;;;;;0.00;0.00;;;;;;;-3.63;100.00;98537.91;4936045;28;20755;-59
2023/01/20 08:17:27;;;;;;;0.00;0.00;;;;;;;-3.59;100.00;98544.53;4941570;28;20701;-58
2023/01/20 08:19:53;;;;;;;0.00;0.00;;;;;;;-3.55;100.00;98550.34;4931835;28;20713;-60
2023/01/20 08:22:20;;;;;;;0.00;0.00;;;;;;;-3.51;100.00;98549.34;4934628;28;20705;-59
2023/01/20 08:24:48;;;;;;;0.00;0.00;;;;;;;-3.54;100.00;98561.38;4934852;28;20233;-57
2023/01/20 08:27:15;;;;;;;0.00;0.00;;;;;;;-3.51;100.00;98561.25;4933181;28;20635;-58
2023/01/20 08:29:42;;;;;;;0.00;0.00;;;;;;;-3.52;100.00;98573.19;4932671;28;20360;-57
2023/01/20 08:32:09;;;;;;;0.00;0.00;;;;;;;-3.46;100.00;98577.19;4933064;28;20254;-57
2023/01/20 08:34:35;;;;;;;0.10;0.10;;;;;;;-3.42;100.00;98571.06;4925713;28;20245;-57
2023/01/20 08:37:02;;;;;;;0.00;0.00;;;;;;;-3.38;100.00;98582.00;4936856;28;20240;-58
2023/01/20 08:39:28;;;;;;;0.00;0.00;;;;;;;-3.31;100.00;98584.22;4931756;28;20235;-59
2023/01/20 08:41:56;;;;;;;0.00;0.00;;;;;;;-3.33;100.00;98590.28;4927153;28;20237;-59
2023/01/20 08:44:23;;;;;;;0.00;0.00;;;;;;;-3.32;100.00;98590.22;4932489;28;20289;-59
2023/01/20 08:46:51;;;;;;;0.00;0.00;;;;;;;-3.29;100.00;98594.38;4929106;28;20230;-58
2023/01/20 08:49:20;;;;;;;0.00;0.00;;;;;;;-3.25;100.00;98603.56;4935002;28;20320;-58
2023/01/20 08:51:47;;;;;;;0.00;0.00;;;;;;;-3.23;100.00;98601.78;4935621;28;20229;-58
2023/01/20 08:54:14;;;;;;;0.00;0.00;;;;;;;-3.14;100.00;98605.66;4933677;28;20230;-59
2023/01/20 08:56:40;;;;;;;0.00;0.00;;;;;;;-3.11;100.00;98614.00;4930184;28;20698;-59
2023/01/20 08:59:08;;;;;;;0.10;0.10;;;;;;;-2.92;100.00;98620.88;4927804;28;20324;-58
2023/01/20 09:01:36;;;;;;;0.00;0.00;;;;;;;-2.76;100.00;98618.53;4932403;28;20234;-58
2023/01/20 09:04:04;;;;;;;0.00;0.00;;;;;;;-2.52;100.00;98624.28;4931996;28;20309;-58
2023/01/20 09:06:31;;;;;;;0.00;0.00;;;;;;;-2.27;100.00;98630.84;4930513;28;20222;-58
2023/01/20 09:08:58;;;;;;;0.00;0.00;;;;;;;-2.01;100.00;98623.69;4929002;29;20242;-58
2023/01/20 09:11:25;;;;;;;0.00;0.00;;;;;;;-1.77;100.00;98631.09;4927715;28;20293;-58
2023/01/20 09:13:52;;;;;;;0.00;0.00;;;;;;;-1.46;100.00;98637.31;4930717;28;20290;-59
2023/01/20 09:16:20;;;;;;;0.00;0.00;;;;;;;-1.42;100.00;98628.59;4929621;28;20278;-58
2023/01/20 09:18:46;;;;;;;0.00;0.00;;;;;;;-1.20;100.00;98640.34;4933649;28;20226;-57
2023/01/20 09:21:13;;;;;;;0.00;0.00;;;;;;;-1.04;100.00;98635.28;4933478;28;20240;-59
2023/01/20 09:23:41;;;;;;;0.00;0.00;;;;;;;-0.99;100.00;98646.13;4916830;28;20914;-59
2023/01/20 09:26:08;;;;;;;0.00;0.00;;;;;;;-0.81;100.00;98646.09;4934744;28;20639;-58
2023/01/20 09:28:35;;;;;;;0.00;0.00;;;;;;;-0.73;100.00;98636.28;4932589;28;20225;-60
2023/01/20 09:31:05;;;;;;;0.00;0.00;;;;;;;-0.58;100.00;98639.78;4931168;28;20236;-59
2023/01/20 09:33:36;;;;;;;0.00;0.00;;;;;;;-0.46;100.00;98640.84;4928524;28;20237;-57
2023/01/20 09:36:04;;;;;;;0.00;0.00;;;;;;;-0.40;100.00;98644.84;4928375;28;20230;-58
2023/01/20 09:44:20;;;;;;;0.00;0.00;;;;;;;-0.38;100.00;98661.81;4930532;28;20235;-59
2023/01/20 09:53:03;;;;;;;0.00;0.00;;;;;;;-0.24;100.00;98670.50;4927040;28;20239;-59
2023/01/20 09:55:37;;;;;;;0.00;0.00;;;;;;;-0.15;100.00;98670.03;4929163;28;20246;-59
2023/01/20 09:58:13;;;;;;;0.00;0.00;;;;;;;0.01;100.00;98685.41;4928310;28;20223;-58
2023/01/20 10:00:43;;;;;;;0.00;0.00;;;;;;;0.09;100.00;98683.25;4931089;28;20237;-59
2023/01/20 10:03:15;;;;;;;0.00;0.00;;;;;;;0.16;100.00;98682.94;4917135;28;20235;-59
2023/01/20 10:05:50;;;;;;;0.00;0.00;;;;;;;0.19;100.00;98682.78;4924701;28;20626;-59
2023/01/20 10:08:21;;;;;;;0.00;0.00;;;;;;;0.21;100.00;98680.94;4927821;28;20226;-55
2023/01/20 10:10:51;;;;;;;0.07;0.07;;;;;;;0.20;100.00;98685.28;4922271;28;20642;-57
2023/01/20 10:13:22;;;;;;;0.00;0.00;;;;;;;0.26;100.00;98687.50;4925386;28;20222;-58
2023/01/20 10:15:52;;;;;;;0.00;0.00;;;;;;;0.30;100.00;98685.59;4928660;28;20226;-57
2023/01/20 10:18:24;;;;;;;0.00;0.00;;;;;;;0.35;100.00;98687.91;4931770;28;20245;-59
2023/01/20 10:20:58;;;;;;;0.00;0.00;;;;;;;0.48;99.40;98683.75;4928961;28;20313;-57
2023/01/20 10:23:53;;;;;;;0.00;0.00;;;;;;;0.67;99.23;98685.25;4922434;28;20667;-57
2023/01/20 10:26:26;;;;;;;0.00;0.00;;;;;;;0.95;98.83;98688.84;4927711;28;20227;-56
2023/01/20 10:28:59;;;;;;;0.00;0.00;;;;;;;0.98;95.47;98689.50;4924907;28;20310;-57
2023/01/20 10:31:27;;;;;;;0.00;0.00;;;;;;;1.08;95.03;98687.22;4920363;28;20742;-57
2023/01/20 10:33:58;;;;;;;0.00;0.00;;;;;;;1.15;94.20;98685.94;4921425;28;20235;-58
2023/01/20 10:36:28;;;;;;;0.00;0.00;;;;;;;1.21;92.59;98695.03;4928820;28;20227;-57
2023/01/20 10:38:58;;;;;;;0.00;0.00;;;;;;;1.38;91.86;98688.91;4925975;28;20235;-55
2023/01/20 10:41:32;;;;;;;0.00;0.00;;;;;;;1.49;89.14;98690.03;4933479;28;20258;-56
2023/01/20 10:43:59;;;;;;;0.00;0.00;;;;;;;1.53;89.67;98694.06;4927901;28;20236;-57
2023/01/20 10:46:51;;;;;;;0.00;0.00;;;;;;;1.69;90.24;98687.06;4927713;28;20234;-58
2023/01/20 10:49:55;;;;;;;0.00;0.00;;;;;;;1.77;90.25;98686.63;4925749;28;20710;-57
2023/01/20 10:52:37;;;;;;;0.00;0.00;;;;;;;1.71;87.64;98689.56;4921364;28;20228;-57
2023/01/20 10:55:17;;;;;;;0.00;0.00;;;;;;;1.87;87.38;98689.44;4923460;28;20239;-57
2023/01/20 10:57:44;;;;;;;0.00;0.00;;;;;;;1.98;86.59;98694.75;4923382;28;20631;-56
2023/01/20 11:00:20;;;;;;;0.00;0.00;;;;;;;2.04;85.69;98693.56;4927600;28;20245;-57
2023/01/20 11:02:48;;;;;;;0.00;0.00;;;;;;;1.97;85.75;98698.25;4941367;28;20238;-56
2023/01/20 11:05:18;;;;;;;0.00;0.00;;;;;;;1.80;86.16;98699.28;4930445;28;20561;-56
2023/01/20 11:07:49;;;;;;;0.00;0.00;;;;;;;1.79;87.53;98694.22;4923927;28;20776;-58
2023/01/20 11:10:18;;;;;;;0.00;0.00;;;;;;;1.76;88.91;98703.78;4928868;28;20279;-56
2023/01/20 11:12:47;;;;;;;0.00;0.00;;;;;;;1.88;89.29;98697.09;4922125;28;20242;-57
2023/01/20 11:15:19;;;;;;;0.00;0.00;;;;;;;1.86;88.71;98691.19;4927631;28;20234;-58
2023/01/20 11:17:46;;;;;;;0.00;0.00;;;;;;;1.67;88.06;98695.81;4924100;28;20230;-56
2023/01/20 11:20:19;;;;;;;0.00;0.00;;;;;;;1.61;89.53;98697.81;4929625;28;20219;-57
2023/01/20 11:22:49;;;;;;;0.00;0.00;;;;;;;1.70;89.92;98698.19;4921796;28;20233;-59
2023/01/20 11:25:24;;;;;;;0.00;0.00;;;;;;;1.89;88.66;98695.31;4930604;28;20351;-57
2023/01/20 11:27:52;;;;;;;0.00;0.00;;;;;;;1.94;90.12;98701.03;4923790;28;20262;-58
2023/01/20 11:30:25;;;;;;;0.00;0.00;;;;;;;1.77;88.65;98704.63;4929115;28;20230;-57
2023/01/20 11:33:09;;;;;;;0.00;0.00;;;;;;;1.71;88.74;98700.66;4923100;28;20229;-57
2023/01/20 11:35:36;;;;;;;0.00;0.00;;;;;;;1.73;90.03;98705.72;4922399;28;20235;-57
2023/01/20 11:38:23;;;;;;;0.00;0.00;;;;;;;1.84;89.29;98711.06;4933558;28;20331;-57
2023/01/20 11:40:52;;;;;;;0.00;0.00;;;;;;;1.72;89.87;98704.88;4915452;28;20307;-58
2023/01/20 11:43:33;;;;;;;0.00;0.00;;;;;;;1.57;88.73;98714.38;4925769;28;20261;-55
2023/01/20 11:46:20;;;;;;;0.00;0.00;;;;;;;1.38;90.34;98706.94;4924460;28;20309;-54
2023/01/20 11:48:46;;;;;;;0.00;0.00;;;;;;;1.46;100.00;98706.47;4922775;28;20234;-58
2023/01/20 11:51:24;;;;;;;0.00;0.00;;;;;;;1.30;100.00;98709.94;4925606;28;20248;-55
2023/01/20 11:54:05;;;;;;;0.00;0.00;;;;;;;1.41;100.00;98708.47;4924593;28;20230;-54